Terminal Aerodrome Forecast
Issued by NWS

Home | Current Version | Previous Version | Text Only | Print | Product List | Glossary Off
Versions: 1 2 3 4 5 6 7 8 9 10 11 12 13 14

259
FTUS43 KOAX 081838 CCA
TAFCDR
TAF COR
KCDR 081838Z 0819/0918 31015G25KT P6SM BKN100
     FM082100 30011KT P6SM BKN100=

USA.gov is the U.S. government's official web portal to all federal, state and local government web resources and services.